Time;durP1;ratioP1;P1;durP2;ratioP2;P2;SDS_P1;SDS_P2;PMS_P1;PMS_P2;Temp;Humidity;BMP_temperature;BMP_pressure;BME280_temperature;BME280_humidity;BME280_pressure;Samples;Min_cycle;Max_cycle;Signal;HPM_P1;HPM_P2
2022/08/04 00:01:22;;;;;;;24.05;7.82;;;;;;;;;;5052938;28;20033;-73
2022/08/04 00:03:48;;;;;;;21.40;7.18;;;;;;;;;;5053161;28;20055;-72
2022/08/04 00:06:20;;;;;;;18.48;6.65;;;;;;;;;;5053082;28;20045;-72
2022/08/04 00:08:50;;;;;;;19.98;7.78;;;;;;;;;;5052960;28;20033;-73
2022/08/04 00:11:20;;;;;;;22.17;7.18;;;;;;;;;;5053506;28;20024;-73
2022/08/04 00:13:50;;;;;;;27.10;8.00;;;;;;;;;;5053289;28;20108;-72
2022/08/04 00:16:16;;;;;;;24.63;7.35;;;;;;;;;;5052596;28;20025;-71
2022/08/04 00:18:49;;;;;;;23.08;7.85;;;;;;;;;;5052826;28;20478;-72
2022/08/04 00:21:18;;;;;;;21.10;7.15;;;;;;;;;;5052687;28;20496;-71
2022/08/04 00:23:44;;;;;;;15.30;6.38;;;;;;;;;;5052944;28;20107;-72
2022/08/04 00:26:11;;;;;;;18.88;6.38;;;;;;;;;;5052743;28;20025;-71
2022/08/04 00:28:38;;;;;;;19.80;6.32;;;;;;;;;;5052183;28;20087;-73
2022/08/04 00:31:04;;;;;;;18.33;6.28;;;;;;;;;;5051715;28;20082;-72
2022/08/04 00:33:30;;;;;;;11.90;5.90;;;;;;;;;;5052044;28;20032;-72
2022/08/04 00:35:56;;;;;;;16.50;6.72;;;;;;;;;;5051639;28;20104;-72
2022/08/04 00:38:22;;;;;;;22.08;6.90;;;;;;;;;;5051630;28;20041;-72
2022/08/04 00:40:48;;;;;;;19.02;7.05;;;;;;;;;;5051697;28;20062;-73
2022/08/04 00:43:19;;;;;;;21.98;6.88;;;;;;;;;;5051941;28;20025;-73
2022/08/04 00:45:57;;;;;;;18.27;6.40;;;;;;;;;;5051598;28;20037;-73
2022/08/04 00:48:35;;;;;;;21.08;6.13;;;;;;;;;;5051321;28;20104;-73
2022/08/04 00:51:15;;;;;;;17.42;6.35;;;;;;;;;;5051546;28;20021;-73
2022/08/04 00:53:53;;;;;;;32.00;7.22;;;;;;;;;;5051615;28;20075;-73
2022/08/04 00:56:19;;;;;;;13.93;6.00;;;;;;;;;;5051377;28;20493;-73
2022/08/04 00:58:55;;;;;;;20.67;6.53;;;;;;;;;;5051444;28;20025;-73
2022/08/04 01:01:32;;;;;;;18.05;5.47;;;;;;;;;;5051411;28;20089;-73
2022/08/04 01:04:15;;;;;;;17.85;5.50;;;;;;;;;;5051416;28;20068;-73
2022/08/04 01:06:49;;;;;;;20.08;5.20;;;;;;;;;;5051228;28;20025;-73
2022/08/04 01:09:15;;;;;;;19.23;5.60;;;;;;;;;;5051267;28;20029;-73
2022/08/04 01:11:47;;;;;;;22.13;5.20;;;;;;;;;;5051386;28;20108;-73
2022/08/04 01:14:16;;;;;;;19.23;5.40;;;;;;;;;;5051192;28;20100;-73
2022/08/04 01:16:48;;;;;;;25.48;6.22;;;;;;;;;;5050215;28;20036;-73
2022/08/04 01:19:23;;;;;;;19.08;5.85;;;;;;;;;;5051850;28;20093;-73
2022/08/04 01:22:07;;;;;;;16.10;5.88;;;;;;;;;;5053121;28;20025;-73
2022/08/04 01:24:55;;;;;;;20.08;5.70;;;;;;;;;;5055072;28;20061;-72
2022/08/04 01:27:26;;;;;;;20.90;5.47;;;;;;;;;;5054720;28;20060;-73
2022/08/04 01:29:57;;;;;;;14.65;5.32;;;;;;;;;;5055051;28;20486;-73
2022/08/04 01:32:27;;;;;;;23.25;5.20;;;;;;;;;;5053646;28;20028;-72
2022/08/04 01:35:06;;;;;;;16.08;5.32;;;;;;;;;;5054834;28;20512;-72
2022/08/04 01:37:50;;;;;;;18.23;5.00;;;;;;;;;;5054582;28;20143;-72
2022/08/04 01:40:16;;;;;;;13.63;4.88;;;;;;;;;;5054798;28;20103;-73
2022/08/04 01:42:44;;;;;;;13.18;4.18;;;;;;;;;;5054745;28;20037;-73
2022/08/04 01:45:11;;;;;;;15.48;4.55;;;;;;;;;;5054646;28;20386;-72
2022/08/04 01:47:39;;;;;;;16.88;4.20;;;;;;;;;;5053205;28;20059;-72
2022/08/04 01:50:09;;;;;;;16.17;4.55;;;;;;;;;;5054634;28;20029;-75
2022/08/04 01:52:36;;;;;;;17.77;4.97;;;;;;;;;;5054649;28;20032;-75
2022/08/04 01:55:05;;;;;;;10.25;4.55;;;;;;;;;;5054371;28;20025;-74
2022/08/04 01:57:33;;;;;;;13.85;4.47;;;;;;;;;;5054444;28;20024;-74
2022/08/04 02:00:00;;;;;;;12.07;5.13;;;;;;;;;;5054493;28;20021;-74
2022/08/04 02:02:26;;;;;;;16.33;5.05;;;;;;;;;;5052610;28;20053;-74
2022/08/04 02:04:51;;;;;;;15.88;4.45;;;;;;;;;;5054521;28;20064;-75
2022/08/04 02:07:27;;;;;;;10.98;4.18;;;;;;;;;;5053882;28;20159;-74
2022/08/04 02:10:18;;;;;;;13.70;4.63;;;;;;;;;;5054342;28;20086;-74
2022/08/04 02:12:43;;;;;;;11.63;4.90;;;;;;;;;;5054319;28;20071;-73
2022/08/04 02:15:09;;;;;;;13.00;4.43;;;;;;;;;;5054297;28;20065;-73
2022/08/04 02:17:54;;;;;;;15.57;4.13;;;;;;;;;;5054264;28;20114;-75
2022/08/04 02:20:20;;;;;;;;;;;;;;;;;;5054740;28;20043;-74
2022/08/04 02:22:56;;;;;;;13.00;4.30;;;;;;;;;;5052748;28;20405;-72
2022/08/04 02:25:24;;;;;;;11.45;3.75;;;;;;;;;;5054474;28;20112;-75
2022/08/04 02:28:08;;;;;;;15.48;4.25;;;;;;;;;;5055545;28;20155;-75
2022/08/04 02:30:40;;;;;;;14.57;4.53;;;;;;;;;;5052600;28;20032;-74
2022/08/04 02:33:07;;;;;;;10.32;3.70;;;;;;;;;;5053497;28;20021;-74
2022/08/04 02:35:35;;;;;;;9.15;3.83;;;;;;;;;;5054358;28;20539;-73
2022/08/04 02:38:16;;;;;;;12.30;4.05;;;;;;;;;;5052944;28;20032;-73
2022/08/04 02:40:42;;;;;;;14.13;4.30;;;;;;;;;;5052446;28;20054;-75
2022/08/04 02:43:09;;;;;;;11.90;4.00;;;;;;;;;;5053771;28;20029;-75
2022/08/04 02:45:39;;;;;;;11.70;4.35;;;;;;;;;;5053534;28;20032;-76
2022/08/04 02:48:05;;;;;;;12.90;4.90;;;;;;;;;;5053769;28;20036;-78
2022/08/04 02:50:34;;;;;;;12.77;4.72;;;;;;;;;;5055971;28;20021;-74
2022/08/04 02:53:02;;;;;;;17.98;5.35;;;;;;;;;;5059013;28;20419;-73
2022/08/04 02:55:29;;;;;;;13.70;4.45;;;;;;;;;;5059317;28;20079;-76
2022/08/04 02:57:57;;;;;;;14.15;4.65;;;;;;;;;;5053966;28;20017;-76
2022/08/04 03:00:23;;;;;;;18.77;5.43;;;;;;;;;;5053853;28;20463;-75
2022/08/04 03:02:50;;;;;;;14.65;4.88;;;;;;;;;;5053443;28;20397;-76
2022/08/04 03:05:21;;;;;;;15.90;4.18;;;;;;;;;;5053197;28;20049;-73
2022/08/04 03:07:50;;;;;;;12.75;4.47;;;;;;;;;;5053143;28;20025;-75
2022/08/04 03:10:34;;;;;;;17.30;4.35;;;;;;;;;;5052506;28;20129;-76
2022/08/04 03:13:19;;;;;;;19.88;5.35;;;;;;;;;;5053348;28;20025;-74
2022/08/04 03:15:44;;;;;;;15.13;4.95;;;;;;;;;;5057358;28;20021;-75
2022/08/04 03:18:16;;;;;;;15.10;4.55;;;;;;;;;;5052805;28;20025;-75
2022/08/04 03:21:14;;;;;;;13.20;4.55;;;;;;;;;;5052866;28;20033;-74
2022/08/04 03:23:56;;;;;;;17.10;4.95;;;;;;;;;;5054622;28;20036;-75
2022/08/04 03:26:49;;;;;;;16.33;5.10;;;;;;;;;;5054015;28;20617;-75
2022/08/04 03:29:54;;;;;;;17.35;4.88;;;;;;;;;;5052599;28;20036;-74
2022/08/04 03:32:32;;;;;;;11.73;4.77;;;;;;;;;;4991374;28;20369;-75
2022/08/04 03:35:07;;;;;;;13.40;4.47;;;;;;;;;;4991623;28;20023;-74
2022/08/04 03:37:39;;;;;;;14.98;4.72;;;;;;;;;;5029700;28;20048;-75
2022/08/04 03:40:23;;;;;;;15.00;3.95;;;;;;;;;;5055293;28;20375;-74
2022/08/04 03:43:08;;;;;;;12.90;4.57;;;;;;;;;;5053226;28;20033;-75
2022/08/04 03:45:52;;;;;;;12.13;3.92;;;;;;;;;;5054923;28;20444;-73
2022/08/04 03:48:45;;;;;;;14.18;5.25;;;;;;;;;;5052656;28;20029;-74
2022/08/04 03:54:43;;;;;;;10.93;4.20;;;;;;;;;;5050652;28;20528;-79
2022/08/04 03:57:29;;;;;;;12.15;4.75;;;;;;;;;;5053204;28;20091;-75
2022/08/04 04:00:01;;;;;;;23.42;10.60;;;;;;;;;;5053465;28;20076;-76
2022/08/04 04:02:33;;;;;;;18.33;8.38;;;;;;;;;;5053804;28;20112;-75
2022/08/04 04:05:08;;;;;;;16.42;5.55;;;;;;;;;;5055881;28;20029;-74
2022/08/04 04:07:37;;;;;;;12.88;4.28;;;;;;;;;;5052082;28;20499;-74
2022/08/04 04:10:03;;;;;;;21.13;7.22;;;;;;;;;;5051141;28;20112;-75
2022/08/04 04:12:29;;;;;;;16.40;5.97;;;;;;;;;;5052741;28;20111;-74
2022/08/04 04:15:17;;;;;;;14.05;5.80;;;;;;;;;;5052719;28;20402;-73
2022/08/04 04:17:49;;;;;;;13.32;4.30;;;;;;;;;;5052940;28;20029;-74
2022/08/04 04:20:31;;;;;;;15.52;5.25;;;;;;;;;;5052915;28;20053;-75
2022/08/04 04:23:06;;;;;;;12.07;4.57;;;;;;;;;;5051497;28;20454;-76
2022/08/04 04:25:42;;;;;;;11.60;4.57;;;;;;;;;;5054761;28;20029;-76
2022/08/04 04:28:19;;;;;;;11.45;3.92;;;;;;;;;;5055633;28;20382;-75
2022/08/04 04:30:55;;;;;;;10.43;3.75;;;;;;;;;;5053854;28;20039;-75
2022/08/04 04:33:30;;;;;;;15.25;4.20;;;;;;;;;;5052168;28;20021;-75
2022/08/04 04:36:02;;;;;;;12.02;3.92;;;;;;;;;;5052050;28;20021;-75
2022/08/04 04:38:34;;;;;;;9.65;4.05;;;;;;;;;;5055024;28;20074;-75
2022/08/04 04:41:19;;;;;;;17.50;4.20;;;;;;;;;;5054444;28;20078;-78
2022/08/04 04:44:03;;;;;;;16.13;6.43;;;;;;;;;;5060707;28;20029;-79
2022/08/04 04:46:30;;;;;;;;;;;;;;;;;;5061353;28;20032;-79
2022/08/04 04:49:02;;;;;;;13.30;3.65;;;;;;;;;;5067030;28;19995;-78
2022/08/04 04:51:35;;;;;;;13.18;4.70;;;;;;;;;;5058144;28;20116;-79
2022/08/04 04:54:19;;;;;;;12.15;6.93;;;;;;;;;;5060954;28;20025;-79
2022/08/04 04:56:53;;;;;;;14.38;4.25;;;;;;;;;;5070923;28;20025;-76
2022/08/04 04:59:21;;;;;;;11.48;4.25;;;;;;;;;;5078330;28;20024;-77
2022/08/04 05:02:06;;;;;;;12.40;4.10;;;;;;;;;;5074554;28;20040;-73
2022/08/04 05:04:38;;;;;;;13.70;4.85;;;;;;;;;;5067552;28;20041;-74
2022/08/04 05:07:25;;;;;;;14.48;4.97;;;;;;;;;;5066422;28;20040;-74
2022/08/04 05:10:06;;;;;;;11.68;3.75;;;;;;;;;;5037474;28;20052;-75
2022/08/04 05:12:32;;;;;;;11.38;3.55;;;;;;;;;;5066335;28;20025;-74
2022/08/04 05:14:59;;;;;;;10.70;4.35;;;;;;;;;;5067555;28;20054;-74
2022/08/04 05:17:45;;;;;;;20.73;3.65;;;;;;;;;;5065301;28;20036;-73
2022/08/04 05:20:14;;;;;;;9.32;3.70;;;;;;;;;;5066683;28;20033;-74
2022/08/04 05:22:46;;;;;;;16.25;3.65;;;;;;;;;;5060456;28;20369;-74
2022/08/04 05:25:20;;;;;;;17.75;4.28;;;;;;;;;;5063271;28;20032;-76
2022/08/04 05:27:51;;;;;;;15.30;4.40;;;;;;;;;;5058522;28;20068;-76
2022/08/04 05:30:18;;;;;;;9.93;3.80;;;;;;;;;;5058464;28;20044;-74
2022/08/04 05:32:54;;;;;;;14.90;4.15;;;;;;;;;;5059018;28;20021;-74
2022/08/04 05:35:27;;;;;;;15.52;3.83;;;;;;;;;;5061424;28;20025;-73
2022/08/04 05:37:54;;;;;;;13.13;3.70;;;;;;;;;;5062842;28;20025;-75
2022/08/04 05:40:20;;;;;;;12.43;3.17;;;;;;;;;;5063288;28;20454;-76
2022/08/04 05:42:47;;;;;;;18.48;4.85;;;;;;;;;;5067681;28;20104;-73
2022/08/04 05:45:13;;;;;;;20.55;4.70;;;;;;;;;;5064330;28;20030;-74
2022/08/04 05:47:39;;;;;;;10.25;4.18;;;;;;;;;;5061124;28;20381;-76
2022/08/04 05:50:06;;;;;;;17.02;3.55;;;;;;;;;;5056697;28;20210;-75
2022/08/04 05:52:34;;;;;;;15.57;4.80;;;;;;;;;;5057705;28;20031;-75
2022/08/04 05:55:00;;;;;;;15.93;3.88;;;;;;;;;;5057267;28;20029;-76
2022/08/04 05:57:27;;;;;;;14.05;3.90;;;;;;;;;;5058167;28;20025;-74
2022/08/04 05:59:54;;;;;;;16.90;4.45;;;;;;;;;;5058158;28;20039;-76
2022/08/04 06:02:21;;;;;;;16.00;3.55;;;;;;;;;;5061159;28;20040;-75
2022/08/04 06:04:49;;;;;;;15.00;3.72;;;;;;;;;;5059593;28;20029;-75
2022/08/04 06:07:15;;;;;;;10.38;3.80;;;;;;;;;;5057338;28;20051;-74
2022/08/04 06:09:41;;;;;;;18.30;3.65;;;;;;;;;;5056353;28;20029;-76
2022/08/04 06:12:10;;;;;;;17.52;3.85;;;;;;;;;;5055389;28;20421;-74
2022/08/04 06:14:41;;;;;;;22.55;4.57;;;;;;;;;;5054814;28;20071;-76
2022/08/04 06:17:08;;;;;;;13.90;4.20;;;;;;;;;;5056019;28;20036;-76
2022/08/04 06:19:35;;;;;;;15.63;4.18;;;;;;;;;;5057613;28;20021;-75
2022/08/04 06:22:03;;;;;;;19.30;4.55;;;;;;;;;;5061535;28;20031;-75
2022/08/04 06:24:30;;;;;;;17.98;3.83;;;;;;;;;;5057812;28;20106;-74
2022/08/04 06:26:56;;;;;;;17.92;4.22;;;;;;;;;;5055754;28;20363;-75
2022/08/04 06:29:30;;;;;;;24.10;4.03;;;;;;;;;;5054185;28;20490;-74
2022/08/04 06:31:57;;;;;;;20.55;4.35;;;;;;;;;;5055097;28;20021;-77
2022/08/04 06:34:23;;;;;;;17.77;4.63;;;;;;;;;;5054411;28;20025;-75
2022/08/04 06:36:50;;;;;;;11.93;3.58;;;;;;;;;;5058429;28;20032;-80
2022/08/04 06:39:16;;;;;;;15.40;3.40;;;;;;;;;;5060079;28;20029;-74
2022/08/04 06:41:42;;;;;;;21.20;3.92;;;;;;;;;;5057170;28;20029;-76
2022/08/04 06:44:09;;;;;;;16.92;4.57;;;;;;;;;;5054139;28;20074;-76
2022/08/04 06:46:38;;;;;;;15.95;4.20;;;;;;;;;;5053627;28;20078;-72
2022/08/04 06:49:04;;;;;;;16.77;4.07;;;;;;;;;;5053551;28;20065;-74
2022/08/04 06:51:30;;;;;;;19.45;4.20;;;;;;;;;;5053274;28;20028;-73
2022/08/04 06:53:56;;;;;;;16.85;3.80;;;;;;;;;;5052098;28;20491;-75
2022/08/04 06:56:24;;;;;;;16.25;4.10;;;;;;;;;;5051809;28;20064;-72
2022/08/04 06:58:50;;;;;;;20.15;4.10;;;;;;;;;;5051979;28;20079;-74
2022/08/04 07:01:17;;;;;;;15.07;3.53;;;;;;;;;;5051825;28;20521;-72
2022/08/04 07:03:43;;;;;;;17.38;3.78;;;;;;;;;;5052789;28;20055;-76
2022/08/04 07:06:09;;;;;;;16.10;3.80;;;;;;;;;;5050232;28;20032;-73
2022/08/04 07:08:36;;;;;;;23.58;4.82;;;;;;;;;;5052467;28;20029;-81
2022/08/04 07:11:02;;;;;;;25.75;4.40;;;;;;;;;;5050775;28;20020;-75
2022/08/04 07:13:30;;;;;;;13.82;3.05;;;;;;;;;;5052763;28;20022;-76
2022/08/04 07:15:57;;;;;;;16.67;3.90;;;;;;;;;;5053282;28;20036;-72
2022/08/04 07:18:23;;;;;;;18.83;4.38;;;;;;;;;;5052651;28;20056;-74
2022/08/04 07:20:49;;;;;;;18.40;3.63;;;;;;;;;;5052149;28;20029;-74
2022/08/04 07:23:16;;;;;;;17.48;3.85;;;;;;;;;;5060877;28;20033;-74
2022/08/04 07:25:42;;;;;;;8.93;3.03;;;;;;;;;;5056122;28;20049;-74
2022/08/04 07:28:09;;;;;;;15.32;3.30;;;;;;;;;;5054064;28;20048;-73
2022/08/04 07:30:36;;;;;;;12.52;3.60;;;;;;;;;;5054582;28;20075;-73
2022/08/04 07:33:02;;;;;;;13.05;3.53;;;;;;;;;;5053309;28;20037;-73
2022/08/04 07:35:29;;;;;;;20.48;4.43;;;;;;;;;;5052195;28;20048;-74
2022/08/04 07:37:55;;;;;;;25.58;4.38;;;;;;;;;;5052355;28;20023;-73
2022/08/04 07:40:21;;;;;;;18.95;4.97;;;;;;;;;;5052188;28;20075;-73
2022/08/04 07:42:47;;;;;;;13.93;3.92;;;;;;;;;;5051404;28;20478;-73
2022/08/04 07:45:17;;;;;;;11.20;3.50;;;;;;;;;;5051283;28;20057;-73
2022/08/04 07:47:43;;;;;;;22.85;4.18;;;;;;;;;;5051541;28;20116;-73
2022/08/04 07:50:11;;;;;;;10.73;3.40;;;;;;;;;;5051918;28;20074;-73
2022/08/04 07:52:37;;;;;;;23.33;4.40;;;;;;;;;;5051963;28;20490;-73
2022/08/04 07:55:04;;;;;;;23.77;3.67;;;;;;;;;;5052895;28;20056;-73
2022/08/04 07:57:30;;;;;;;20.67;4.45;;;;;;;;;;5050454;28;20082;-73
2022/08/04 07:59:56;;;;;;;17.40;4.43;;;;;;;;;;5051761;28;20413;-73
2022/08/04 08:02:23;;;;;;;24.92;3.58;;;;;;;;;;5052878;28;20033;-75
2022/08/04 08:04:49;;;;;;;23.00;4.30;;;;;;;;;;5052646;28;20497;-73
2022/08/04 08:07:15;;;;;;;15.93;3.90;;;;;;;;;;5051660;28;20033;-73
2022/08/04 08:09:41;;;;;;;15.95;3.72;;;;;;;;;;5052527;28;20082;-74
2022/08/04 08:12:08;;;;;;;19.52;4.40;;;;;;;;;;5052291;28;20073;-72
2022/08/04 08:14:35;;;;;;;18.08;3.47;;;;;;;;;;5054071;28;20036;-73
2022/08/04 08:17:02;;;;;;;11.75;3.17;;;;;;;;;;5054244;28;20025;-73
2022/08/04 08:19:28;;;;;;;14.73;3.67;;;;;;;;;;5055054;28;20187;-73
2022/08/04 08:21:54;;;;;;;17.80;3.40;;;;;;;;;;5060344;28;20029;-71
2022/08/04 08:24:20;;;;;;;20.13;4.85;;;;;;;;;;5065078;28;20045;-73
2022/08/04 08:26:46;;;;;;;17.80;4.15;;;;;;;;;;5051259;28;20079;-72
2022/08/04 08:29:12;;;;;;;10.15;2.95;;;;;;;;;;5051673;28;20056;-72
2022/08/04 08:31:39;;;;;;;20.88;3.95;;;;;;;;;;5051638;28;20025;-75
2022/08/04 08:34:05;;;;;;;16.48;3.00;;;;;;;;;;5053885;28;20032;-72
2022/08/04 08:36:33;;;;;;;17.23;3.13;;;;;;;;;;5051488;28;20029;-73
2022/08/04 08:38:59;;;;;;;19.35;3.10;;;;;;;;;;5051478;28;20378;-74
2022/08/04 08:41:58;;;;;;;13.80;3.10;;;;;;;;;;5051437;28;20032;-74
2022/08/04 08:44:54;;;;;;;24.20;6.70;;;;;;;;;;5052962;28;20086;-74
2022/08/04 08:47:39;;;;;;;16.45;4.03;;;;;;;;;;5052649;28;20025;-75
2022/08/04 08:50:14;;;;;;;16.50;3.30;;;;;;;;;;5051931;28;20472;-73
2022/08/04 08:52:59;;;;;;;14.57;3.20;;;;;;;;;;5051661;28;20441;-73
2022/08/04 08:55:30;;;;;;;15.20;3.08;;;;;;;;;;5052037;28;20029;-73
2022/08/04 08:58:14;;;;;;;15.45;3.03;;;;;;;;;;5050486;28;20052;-72
2022/08/04 09:00:53;;;;;;;12.88;2.92;;;;;;;;;;5051301;28;20108;-73
2022/08/04 09:03:22;;;;;;;11.95;2.60;;;;;;;;;;5056249;28;20151;-72
2022/08/04 09:05:48;;;;;;;12.20;2.63;;;;;;;;;;5051158;28;20041;-73
2022/08/04 09:08:17;;;;;;;14.15;2.90;;;;;;;;;;5050778;28;20072;-72
2022/08/04 09:10:49;;;;;;;12.07;2.83;;;;;;;;;;5051134;28;20029;-73
2022/08/04 09:13:26;;;;;;;15.15;3.60;;;;;;;;;;5051541;28;20013;-74
2022/08/04 09:16:05;;;;;;;13.05;3.33;;;;;;;;;;5054195;28;20025;-72
2022/08/04 09:18:42;;;;;;;18.98;3.45;;;;;;;;;;5054953;28;20029;-74
2022/08/04 09:21:26;;;;;;;8.82;2.75;;;;;;;;;;5054984;28;20428;-73
2022/08/04 09:23:52;;;;;;;;;;;;;;;;;;5051836;28;20033;-73
2022/08/04 09:26:21;;;;;;;16.05;4.00;;;;;;;;;;5051438;28;19904;-73
2022/08/04 09:28:52;;;;;;;13.10;3.75;;;;;;;;;;5087983;22;20090;-75
2022/08/04 09:31:30;;;;;;;12.80;2.80;;;;;;;;;;5072011;28;20075;-74
2022/08/04 09:34:04;;;;;;;14.32;3.00;;;;;;;;;;5072901;28;20428;-74
2022/08/04 09:36:44;;;;;;;11.10;3.20;;;;;;;;;;5072066;28;20021;-74
2022/08/04 09:39:16;;;;;;;18.35;3.15;;;;;;;;;;5073869;28;20025;-75
2022/08/04 09:41:59;;;;;;;14.98;3.30;;;;;;;;;;5076795;28;20036;-75
2022/08/04 09:44:30;;;;;;;17.48;2.67;;;;;;;;;;5084692;28;20048;-74
2022/08/04 09:46:56;;;;;;;7.18;2.83;;;;;;;;;;5094049;28;20084;-74
2022/08/04 09:49:26;;;;;;;11.27;2.88;;;;;;;;;;5074024;28;20050;-74
2022/08/04 09:51:55;;;;;;;10.20;2.75;;;;;;;;;;5094573;28;20039;-73
2022/08/04 09:54:31;;;;;;;5.93;2.00;;;;;;;;;;5078416;28;20042;-72
2022/08/04 09:57:03;;;;;;;10.85;2.63;;;;;;;;;;5092090;28;20025;-73
2022/08/04 09:59:40;;;;;;;10.90;2.70;;;;;;;;;;5056868;28;20153;-74
2022/08/04 10:02:07;;;;;;;7.88;2.13;;;;;;;;;;5075683;28;20388;-74
2022/08/04 10:04:34;;;;;;;10.30;2.88;;;;;;;;;;5074650;28;20057;-74
2022/08/04 10:07:03;;;;;;;10.80;2.80;;;;;;;;;;5074844;28;20039;-74
2022/08/04 10:09:38;;;;;;;5.95;2.75;;;;;;;;;;5076126;28;20050;-75
2022/08/04 10:12:06;;;;;;;10.35;2.60;;;;;;;;;;5075429;28;20396;-74
2022/08/04 10:14:45;;;;;;;10.50;2.80;;;;;;;;;;5074957;28;20078;-74
2022/08/04 10:17:11;;;;;;;7.82;2.70;;;;;;;;;;5075645;28;20171;-74
2022/08/04 10:19:38;;;;;;;8.90;3.38;;;;;;;;;;5076249;28;20063;-75
2022/08/04 10:22:07;;;;;;;15.80;3.05;;;;;;;;;;5076820;28;20116;-74
2022/08/04 10:24:52;;;;;;;9.80;3.03;;;;;;;;;;5075944;28;20027;-74
2022/08/04 10:27:18;;;;;;;14.35;2.92;;;;;;;;;;5056673;28;20334;-75
2022/08/04 10:29:45;;;;;;;15.93;2.90;;;;;;;;;;5074455;28;20442;-74
2022/08/04 10:32:11;;;;;;;13.88;2.85;;;;;;;;;;5074360;28;20029;-74
2022/08/04 10:34:48;;;;;;;9.40;2.78;;;;;;;;;;5056336;28;20025;-75
2022/08/04 10:37:23;;;;;;;10.32;2.75;;;;;;;;;;5073814;28;20028;-74
2022/08/04 10:42:46;;;;;;;12.07;3.58;;;;;;;;;;5074710;28;20150;-75
2022/08/04 10:45:21;;;;;;;9.43;2.72;;;;;;;;;;5074715;28;20385;-73
2022/08/04 10:47:54;;;;;;;13.18;4.10;;;;;;;;;;5074319;28;20051;-74
2022/08/04 10:50:21;;;;;;;14.38;3.88;;;;;;;;;;5074802;28;20385;-75
2022/08/04 10:52:57;;;;;;;10.30;2.50;;;;;;;;;;5075468;28;20029;-74
2022/08/04 10:55:27;;;;;;;9.75;2.72;;;;;;;;;;5074044;28;20119;-76
2022/08/04 10:58:01;;;;;;;9.63;3.25;;;;;;;;;;5074006;28;20123;-76
2022/08/04 11:00:29;;;;;;;8.57;3.00;;;;;;;;;;5075094;28;20071;-74
2022/08/04 11:03:10;;;;;;;10.90;2.88;;;;;;;;;;5075132;28;20044;-76
2022/08/04 11:05:44;;;;;;;20.23;3.13;;;;;;;;;;5074210;28;20543;-75
2022/08/04 11:08:20;;;;;;;16.08;2.75;;;;;;;;;;5056506;28;20120;-73
2022/08/04 11:10:48;;;;;;;16.52;3.55;;;;;;;;;;5056393;28;20090;-74
2022/08/04 11:13:16;;;;;;;7.50;2.50;;;;;;;;;;5074343;28;20070;-76
2022/08/04 11:15:47;;;;;;;11.02;2.80;;;;;;;;;;5076132;28;20024;-75
2022/08/04 11:18:17;;;;;;;8.77;2.78;;;;;;;;;;5076358;28;20020;-75
2022/08/04 11:20:56;;;;;;;5.63;2.50;;;;;;;;;;5076777;28;20040;-75
2022/08/04 11:23:26;;;;;;;5.65;2.40;;;;;;;;;;5076688;28;20016;-75
2022/08/04 11:25:56;;;;;;;6.00;2.25;;;;;;;;;;5075253;28;20029;-75
2022/08/04 11:28:41;;;;;;;12.70;2.60;;;;;;;;;;5075431;28;20035;-76
2022/08/04 11:31:11;;;;;;;12.13;3.33;;;;;;;;;;5075193;28;20055;-74
2022/08/04 11:33:43;;;;;;;6.20;3.58;;;;;;;;;;5074523;28;20046;-75
2022/08/04 11:36:15;;;;;;;11.25;2.38;;;;;;;;;;5055728;28;20021;-76
2022/08/04 11:38:41;;;;;;;8.50;2.75;;;;;;;;;;5055613;28;20040;-75
2022/08/04 11:41:09;;;;;;;10.02;2.58;;;;;;;;;;5073102;28;20031;-75
2022/08/04 11:43:44;;;;;;;8.63;2.67;;;;;;;;;;5073411;28;20380;-74
2022/08/04 11:46:13;;;;;;;5.70;2.63;;;;;;;;;;5073648;28;20370;-76
2022/08/04 11:48:41;;;;;;;13.73;3.15;;;;;;;;;;5073167;28;20113;-74
2022/08/04 11:51:08;;;;;;;8.10;2.53;;;;;;;;;;5073738;28;20052;-75
2022/08/04 11:53:36;;;;;;;6.82;2.97;;;;;;;;;;5073852;28;20496;-77
2022/08/04 11:56:04;;;;;;;7.68;3.40;;;;;;;;;;5073994;28;20082;-74
2022/08/04 11:58:31;;;;;;;5.25;2.53;;;;;;;;;;5073370;28;20031;-75
2022/08/04 12:01:03;;;;;;;7.90;3.25;;;;;;;;;;5074152;28;20477;-76
2022/08/04 12:03:34;;;;;;;9.23;2.30;;;;;;;;;;5074931;28;20098;-76
2022/08/04 12:06:13;;;;;;;9.38;2.47;;;;;;;;;;5073238;28;20028;-76
2022/08/04 12:08:55;;;;;;;7.90;2.10;;;;;;;;;;5075465;28;20059;-74
2022/08/04 12:11:34;;;;;;;7.93;1.90;;;;;;;;;;5092690;28;20055;-74
2022/08/04 12:14:14;;;;;;;4.65;1.88;;;;;;;;;;5090327;28;20028;-75
2022/08/04 12:17:02;;;;;;;5.28;1.75;;;;;;;;;;5072950;28;20096;-75
2022/08/04 12:19:38;;;;;;;4.25;1.88;;;;;;;;;;5089638;28;20013;-77
2022/08/04 12:22:08;;;;;;;6.32;1.80;;;;;;;;;;5080818;28;20024;-76
2022/08/04 12:24:38;;;;;;;8.18;1.85;;;;;;;;;;5082969;28;20043;-76
2022/08/04 12:27:10;;;;;;;4.85;2.10;;;;;;;;;;5068115;28;20052;-77
2022/08/04 12:29:38;;;;;;;6.65;2.03;;;;;;;;;;5077555;28;20028;-77
2022/08/04 12:32:10;;;;;;;7.95;1.83;;;;;;;;;;5056919;28;20024;-76
2022/08/04 12:34:42;;;;;;;6.07;2.00;;;;;;;;;;5074764;28;20056;-76
2022/08/04 12:37:17;;;;;;;7.85;2.25;;;;;;;;;;5073843;28;20436;-75
2022/08/04 12:39:45;;;;;;;5.45;2.08;;;;;;;;;;5075251;28;20032;-76
2022/08/04 12:42:15;;;;;;;8.45;1.83;;;;;;;;;;5080829;28;20032;-79
2022/08/04 12:44:42;;;;;;;3.65;1.80;;;;;;;;;;5077614;28;20111;-77
2022/08/04 12:47:09;;;;;;;3.78;1.88;;;;;;;;;;5076399;28;20021;-75
2022/08/04 12:49:35;;;;;;;5.63;2.05;;;;;;;;;;5055693;28;20112;-77
2022/08/04 12:52:05;;;;;;;8.77;2.05;;;;;;;;;;5073779;28;20079;-75
2022/08/04 12:54:32;;;;;;;11.02;2.40;;;;;;;;;;5073616;28;20036;-75
2022/08/04 12:57:00;;;;;;;14.60;1.98;;;;;;;;;;5073904;28;20025;-75
2022/08/04 12:59:27;;;;;;;7.15;2.25;;;;;;;;;;5074576;28;20029;-74
2022/08/04 13:01:53;;;;;;;4.60;2.20;;;;;;;;;;5056504;28;20028;-75
2022/08/04 13:04:21;;;;;;;3.38;1.70;;;;;;;;;;5075109;28;20082;-75
2022/08/04 13:06:56;;;;;;;5.63;1.77;;;;;;;;;;5079292;28;20311;-77
2022/08/04 13:09:23;;;;;;;7.72;2.20;;;;;;;;;;5077402;28;20028;-75
2022/08/04 13:11:52;;;;;;;3.45;2.08;;;;;;;;;;5056516;28;20480;-76
2022/08/04 13:14:19;;;;;;;6.25;2.00;;;;;;;;;;5073064;28;20495;-77
2022/08/04 13:16:45;;;;;;;10.23;2.90;;;;;;;;;;5056069;28;20051;-76
2022/08/04 13:19:11;;;;;;;8.80;2.22;;;;;;;;;;5077510;28;20385;-76
2022/08/04 13:21:43;;;;;;;3.85;2.10;;;;;;;;;;5079513;28;20029;-77
2022/08/04 13:24:13;;;;;;;6.03;1.95;;;;;;;;;;5079119;28;20020;-77
2022/08/04 13:26:59;;;;;;;5.38;1.90;;;;;;;;;;5077376;28;20025;-78
2022/08/04 13:29:30;;;;;;;4.63;1.92;;;;;;;;;;5082543;28;20032;-77
2022/08/04 13:31:58;;;;;;;7.43;2.33;;;;;;;;;;5077947;28;20044;-76
2022/08/04 13:34:24;;;;;;;5.20;2.00;;;;;;;;;;5078206;28;20031;-76
2022/08/04 13:36:54;;;;;;;12.20;2.33;;;;;;;;;;5059506;28;20103;-76
2022/08/04 13:39:21;;;;;;;9.32;2.10;;;;;;;;;;5077915;28;20584;-76
2022/08/04 13:41:52;;;;;;;5.10;2.22;;;;;;;;;;5078178;28;20031;-75
2022/08/04 13:44:21;;;;;;;5.15;2.00;;;;;;;;;;5078817;28;20020;-75
2022/08/04 13:46:50;;;;;;;4.60;2.05;;;;;;;;;;5075846;28;20393;-76
2022/08/04 13:49:17;;;;;;;6.20;1.85;;;;;;;;;;5078297;28;20028;-78
2022/08/04 13:51:54;;;;;;;6.30;2.15;;;;;;;;;;5078692;28;20020;-79
2022/08/04 13:54:21;;;;;;;4.10;1.80;;;;;;;;;;5079421;28;20401;-77
2022/08/04 13:56:52;;;;;;;3.22;2.13;;;;;;;;;;5079861;28;20122;-77
2022/08/04 13:59:20;;;;;;;14.43;1.90;;;;;;;;;;5064594;28;20029;-77
2022/08/04 14:01:55;;;;;;;4.68;2.00;;;;;;;;;;5084465;28;20469;-76
2022/08/04 14:04:22;;;;;;;3.75;1.75;;;;;;;;;;5079132;28;20027;-77
2022/08/04 14:06:48;;;;;;;5.95;1.90;;;;;;;;;;5076119;28;20535;-77
2022/08/04 14:09:22;;;;;;;4.55;1.88;;;;;;;;;;5079037;28;20028;-77
2022/08/04 14:11:49;;;;;;;5.53;1.83;;;;;;;;;;5082865;28;20069;-74
2022/08/04 14:14:17;;;;;;;7.75;2.10;;;;;;;;;;5082310;28;20052;-78
2022/08/04 14:16:54;;;;;;;2.08;1.70;;;;;;;;;;5082172;28;20021;-76
2022/08/04 14:19:20;;;;;;;14.15;2.78;;;;;;;;;;5078190;28;20029;-75
2022/08/04 14:21:46;;;;;;;11.70;2.72;;;;;;;;;;5081769;28;20119;-78
2022/08/04 14:24:22;;;;;;;13.82;3.38;;;;;;;;;;5080248;28;20088;-77
2022/08/04 14:26:48;;;;;;;12.32;2.95;;;;;;;;;;5089352;28;20037;-77
2022/08/04 14:29:15;;;;;;;12.73;3.15;;;;;;;;;;5086076;28;20032;-77
2022/08/04 14:31:41;;;;;;;11.07;3.30;;;;;;;;;;5068460;28;20086;-76
2022/08/04 14:34:08;;;;;;;12.75;3.05;;;;;;;;;;5090417;28;20047;-75
2022/08/04 14:36:41;;;;;;;14.52;3.45;;;;;;;;;;5097569;28;20059;-72
2022/08/04 14:39:09;;;;;;;11.68;2.97;;;;;;;;;;5081765;28;20028;-72
2022/08/04 14:41:46;;;;;;;13.20;3.20;;;;;;;;;;5098487;28;20029;-75
2022/08/04 14:44:12;;;;;;;8.85;3.28;;;;;;;;;;5099112;28;20036;-76
2022/08/04 14:47:01;;;;;;;17.90;3.38;;;;;;;;;;5086395;28;20054;-77
2022/08/04 14:49:27;;;;;;;19.30;4.30;;;;;;;;;;5083035;28;20017;-76
2022/08/04 14:52:01;;;;;;;21.10;3.63;;;;;;;;;;5081875;28;20362;-75
2022/08/04 14:54:27;;;;;;;17.77;3.88;;;;;;;;;;5075059;28;20427;-76
2022/08/04 14:56:54;;;;;;;21.08;4.47;;;;;;;;;;5075654;28;20020;-75
2022/08/04 14:59:20;;;;;;;17.73;4.35;;;;;;;;;;5075672;28;20024;-77
2022/08/04 15:01:48;;;;;;;20.65;5.00;;;;;;;;;;5077446;28;20032;-77
2022/08/04 15:04:14;;;;;;;23.63;7.70;;;;;;;;;;5077776;28;20060;-77